createdAt,value
2018-06-21T00:01:40.739Z,19.60
2018-06-21T00:04:10.006Z,19.94
2018-06-21T00:06:39.336Z,20.23
2018-06-21T00:09:09.505Z,20.22
2018-06-21T00:11:39.373Z,19.93
2018-06-21T00:14:08.933Z,19.98
2018-06-21T00:16:38.217Z,19.92
2018-06-21T00:19:07.494Z,19.66
2018-06-21T00:21:36.754Z,19.84
2018-06-21T00:24:06.041Z,19.59
2018-06-21T00:26:35.338Z,20.02
2018-06-21T00:29:04.720Z,19.99
2018-06-21T00:31:33.978Z,20.00
2018-06-21T00:34:03.265Z,19.83
2018-06-21T00:36:32.597Z,19.71
2018-06-21T00:39:01.866Z,20.10
2018-06-21T00:41:31.126Z,19.81
2018-06-21T00:44:00.406Z,19.34
2018-06-21T00:46:29.873Z,19.42
2018-06-21T00:48:59.202Z,19.46
2018-06-21T00:51:28.601Z,19.59
2018-06-21T00:53:58.284Z,19.80
2018-06-21T00:56:27.550Z,19.71
2018-06-21T00:58:56.853Z,19.81
2018-06-21T01:01:26.125Z,19.68
2018-06-21T01:03:55.590Z,19.90
2018-06-21T01:06:24.918Z,19.71
2018-06-21T01:08:54.288Z,19.98
2018-06-21T01:11:23.593Z,19.90
2018-06-21T01:13:52.872Z,19.76
2018-06-21T01:16:22.129Z,20.07
2018-06-21T01:18:51.410Z,19.99
2018-06-21T01:21:20.686Z,19.55
2018-06-21T01:23:49.981Z,20.00
2018-06-21T01:26:19.345Z,19.83
2018-06-21T01:28:48.656Z,19.84
2018-06-21T01:31:17.954Z,19.58
2018-06-21T01:33:47.519Z,19.47
2018-06-21T01:36:19.813Z,19.76
2018-06-21T01:38:49.205Z,19.64
2018-06-21T01:41:18.496Z,19.71
2018-06-21T01:43:47.775Z,19.53
2018-06-21T01:46:17.133Z,19.82
2018-06-21T01:48:46.435Z,19.37
2018-06-21T01:51:15.775Z,19.26
2018-06-21T01:53:45.121Z,19.08
2018-06-21T01:56:14.401Z,19.44
2018-06-21T01:58:43.683Z,19.41
2018-06-21T02:01:12.958Z,19.37
2018-06-21T02:03:42.357Z,19.47
2018-06-21T02:06:11.635Z,19.40
2018-06-21T02:08:40.916Z,19.41
2018-06-21T02:11:10.298Z,19.49
2018-06-21T02:13:39.600Z,19.27
2018-06-21T02:16:08.914Z,19.26
2018-06-21T02:18:38.209Z,19.14
2018-06-21T02:21:07.561Z,19.13
2018-06-21T02:23:36.893Z,19.14
2018-06-21T02:26:06.378Z,19.16
2018-06-21T02:28:35.690Z,18.96
2018-06-21T02:31:05.054Z,18.76
2018-06-21T02:33:34.346Z,19.05
2018-06-21T02:36:03.629Z,18.87
2018-06-21T02:38:33.011Z,18.94
2018-06-21T02:41:02.363Z,19.15
2018-06-21T02:43:32.435Z,18.99
2018-06-21T02:46:01.805Z,19.02
2018-06-21T02:48:31.126Z,18.88
2018-06-21T02:51:00.393Z,18.89
2018-06-21T02:53:29.727Z,18.97
2018-06-21T02:55:59.098Z,19.00
2018-06-21T02:58:28.466Z,19.42
2018-06-21T03:00:57.770Z,19.34
2018-06-21T03:03:27.050Z,19.11
2018-06-21T03:05:56.352Z,19.02
2018-06-21T03:08:25.637Z,19.06
2018-06-21T03:10:55.052Z,18.79
2018-06-21T03:13:24.377Z,18.85
2018-06-21T03:15:53.654Z,19.16
2018-06-21T03:18:22.965Z,18.93
2018-06-21T03:20:52.292Z,19.15
2018-06-21T03:23:21.661Z,19.24
2018-06-21T03:25:50.941Z,19.26
2018-06-21T03:28:20.306Z,19.15
2018-06-21T03:30:49.612Z,19.45
2018-06-21T03:33:18.904Z,19.20
2018-06-21T03:35:48.221Z,19.26
2018-06-21T03:38:17.568Z,19.50
2018-06-21T03:40:46.924Z,19.56
2018-06-21T03:43:16.288Z,19.49
2018-06-21T03:45:45.670Z,19.74
2018-06-21T03:48:14.986Z,20.07
2018-06-21T03:50:44.355Z,20.15
2018-06-21T03:53:13.749Z,20.47
2018-06-21T03:55:43.052Z,20.56
2018-06-21T03:58:12.350Z,20.58
2018-06-21T04:00:41.640Z,20.76
2018-06-21T04:03:11.081Z,20.75
2018-06-21T04:05:40.453Z,20.81
2018-06-21T04:08:09.765Z,20.59
2018-06-21T04:10:39.152Z,20.68
2018-06-21T04:13:08.489Z,20.68
2018-06-21T04:15:37.787Z,21.07
2018-06-21T04:18:07.208Z,20.93
2018-06-21T04:20:38.158Z,21.04
2018-06-21T04:23:07.886Z,20.82
2018-06-21T04:25:37.486Z,21.44
2018-06-21T04:28:06.904Z,21.00
2018-06-21T04:30:36.194Z,21.77
2018-06-21T04:33:05.501Z,21.93
2018-06-21T04:35:35.444Z,21.17
2018-06-21T04:38:04.814Z,21.64
2018-06-21T04:40:34.116Z,20.64
2018-06-21T04:43:03.427Z,21.25
2018-06-21T04:45:32.732Z,21.00
2018-06-21T04:48:02.073Z,21.28
2018-06-21T04:50:31.403Z,21.20
2018-06-21T04:53:00.746Z,21.18
2018-06-21T04:55:30.095Z,21.68
2018-06-21T04:57:59.446Z,21.84
2018-06-21T05:00:29.021Z,22.19
2018-06-21T05:02:59.717Z,21.86
2018-06-21T05:05:29.082Z,22.50
2018-06-21T05:07:58.469Z,21.99
2018-06-21T05:10:27.783Z,22.03
2018-06-21T05:12:57.157Z,21.67
2018-06-21T05:15:26.458Z,21.89
2018-06-21T05:17:55.786Z,22.59
2018-06-21T05:20:25.205Z,23.57
2018-06-21T05:22:54.508Z,23.57
2018-06-21T05:25:23.809Z,23.49
2018-06-21T05:27:53.141Z,24.02
2018-06-21T05:30:22.445Z,24.24
2018-06-21T05:32:51.919Z,24.14
2018-06-21T05:35:21.217Z,24.65
2018-06-21T05:37:50.849Z,24.42
2018-06-21T05:40:29.081Z,24.57
2018-06-21T05:42:58.607Z,23.89
2018-06-21T05:45:27.972Z,24.15
2018-06-21T05:47:58.673Z,23.68
2018-06-21T05:50:29.590Z,23.85
2018-06-21T05:52:59.432Z,24.60
2018-06-21T05:55:29.559Z,24.06
2018-06-21T05:57:59.165Z,24.10
2018-06-21T06:00:28.819Z,24.24
2018-06-21T06:02:58.128Z,24.11
2018-06-21T06:05:27.425Z,24.00
2018-06-21T06:07:57.032Z,24.29
2018-06-21T06:10:26.476Z,24.59
2018-06-21T06:12:55.771Z,24.45
2018-06-21T06:15:25.077Z,24.68
2018-06-21T06:17:54.454Z,24.62
2018-06-21T06:20:23.925Z,24.52
2018-06-21T06:22:53.226Z,24.63
2018-06-21T06:25:22.619Z,24.58
2018-06-21T06:27:51.921Z,24.08
2018-06-21T06:30:21.243Z,23.12
2018-06-21T06:32:50.514Z,24.00
2018-06-21T06:35:19.805Z,23.70
2018-06-21T06:37:49.201Z,23.76
2018-06-21T06:40:18.537Z,23.80
2018-06-21T06:42:47.960Z,24.27
2018-06-21T06:45:18.089Z,24.58
2018-06-21T06:47:47.502Z,25.14
2018-06-21T06:50:17.096Z,25.27
2018-06-21T06:52:50.496Z,25.52
2018-06-21T06:55:20.096Z,25.09
2018-06-21T06:57:49.478Z,24.66
2018-06-21T07:00:19.067Z,23.50
2018-06-21T07:02:48.482Z,23.56
2018-06-21T07:05:18.020Z,22.78
2018-06-21T07:07:47.532Z,22.16
2018-06-21T07:10:17.094Z,22.84
2018-06-21T07:12:46.737Z,22.54
2018-06-21T07:15:16.245Z,22.53
2018-06-21T07:17:45.615Z,22.14
2018-06-21T07:20:15.016Z,22.11
2018-06-21T07:22:44.524Z,21.97
2018-06-21T07:25:13.946Z,21.77
2018-06-21T07:27:43.308Z,21.74
2018-06-21T07:30:12.754Z,21.55
2018-06-21T07:32:42.203Z,21.43
2018-06-21T07:35:11.747Z,21.26
2018-06-21T07:37:41.191Z,21.55
2018-06-21T07:40:10.846Z,21.21
2018-06-21T07:42:40.227Z,20.76
2018-06-21T07:45:09.799Z,20.72
2018-06-21T07:47:39.317Z,20.85
2018-06-21T07:50:08.828Z,21.24
2018-06-21T07:52:38.314Z,20.75
2018-06-21T07:55:07.830Z,20.76
2018-06-21T07:57:37.375Z,20.03
2018-06-21T08:00:06.915Z,20.20
2018-06-21T08:02:36.657Z,20.31
2018-06-21T08:05:06.143Z,20.47
2018-06-21T08:07:35.691Z,20.00
2018-06-21T08:10:05.168Z,20.69
2018-06-21T08:12:34.662Z,20.81
2018-06-21T08:15:04.337Z,20.51
2018-06-21T08:17:33.837Z,20.63
2018-06-21T08:20:03.494Z,20.94
2018-06-21T08:22:32.925Z,20.90
2018-06-21T08:25:03.593Z,20.07
2018-06-21T08:27:33.096Z,19.45
2018-06-21T08:30:02.697Z,19.24
2018-06-21T08:32:32.198Z,18.99
2018-06-21T08:35:01.676Z,17.73
2018-06-21T08:37:31.198Z,18.22
2018-06-21T08:40:00.702Z,18.18
2018-06-21T08:42:30.369Z,18.22
2018-06-21T08:44:59.843Z,18.39
2018-06-21T08:47:29.373Z,19.04
2018-06-21T08:49:58.868Z,18.46
2018-06-21T08:52:28.321Z,18.20
2018-06-21T08:54:57.790Z,18.32
2018-06-21T08:57:27.497Z,18.88
2018-06-21T08:59:57.026Z,17.84
2018-06-21T09:02:26.696Z,17.67
2018-06-21T09:04:56.083Z,18.27
2018-06-21T09:07:25.800Z,18.03
2018-06-21T09:09:56.307Z,17.86
2018-06-21T09:12:29.926Z,17.87
2018-06-21T09:14:59.420Z,18.60
2018-06-21T09:17:29.160Z,18.96
2018-06-21T09:19:58.570Z,19.01
2018-06-21T09:22:28.157Z,19.15
2018-06-21T09:24:57.565Z,19.32
2018-06-21T09:27:27.153Z,19.95
2018-06-21T09:29:57.018Z,20.98
2018-06-21T09:32:27.164Z,21.25
2018-06-21T09:34:56.675Z,21.55
2018-06-21T09:37:31.605Z,20.72
2018-06-21T09:40:06.576Z,21.51
2018-06-21T09:42:41.269Z,20.96
2018-06-21T09:45:10.716Z,21.16
2018-06-21T09:47:45.493Z,21.40
2018-06-21T09:50:17.432Z,20.58
2018-06-21T09:52:47.183Z,20.65
2018-06-21T09:55:16.648Z,20.09
2018-06-21T09:57:46.235Z,19.25
2018-06-21T10:01:23.881Z,19.16
2018-06-21T10:03:53.485Z,19.05
2018-06-21T10:06:25.144Z,19.37
2018-06-21T10:08:54.669Z,19.17
2018-06-21T10:11:24.201Z,20.17
2018-06-21T10:13:53.689Z,21.77
2018-06-21T10:16:23.373Z,22.65
2018-06-21T10:18:52.915Z,21.64
2018-06-21T10:21:22.534Z,22.26
2018-06-21T10:23:51.941Z,21.55
2018-06-21T10:26:22.019Z,21.51
2018-06-21T10:28:51.460Z,20.99
2018-06-21T10:31:20.900Z,20.47
2018-06-21T10:33:50.427Z,19.84
2018-06-21T10:36:19.937Z,19.82
2018-06-21T10:38:49.368Z,20.69
2018-06-21T10:41:18.940Z,20.08
2018-06-21T10:43:48.371Z,20.33
2018-06-21T10:46:18.703Z,21.91
2018-06-21T10:48:49.338Z,23.16
2018-06-21T10:51:20.272Z,22.48
2018-06-21T10:53:50.616Z,21.77
2018-06-21T10:56:20.269Z,23.33
2018-06-21T10:58:50.695Z,23.95
2018-06-21T11:01:22.467Z,25.35
2018-06-21T11:03:52.882Z,24.56
2018-06-21T11:06:23.684Z,24.67
2018-06-21T11:08:53.349Z,24.52
2018-06-21T11:11:28.461Z,23.22
2018-06-21T11:13:57.999Z,22.17
2018-06-21T11:16:27.752Z,20.72
2018-06-21T11:18:57.657Z,20.39
2018-06-21T11:21:27.229Z,20.48
2018-06-21T11:23:56.851Z,21.22
2018-06-21T11:26:26.412Z,21.96
2018-06-21T11:28:56.547Z,23.02
2018-06-21T11:31:27.106Z,22.26
2018-06-21T11:33:57.509Z,21.75
2018-06-21T11:36:27.328Z,21.47
2018-06-21T11:38:57.497Z,21.48
2018-06-21T11:41:28.317Z,22.48
2018-06-21T11:44:05.161Z,21.77
2018-06-21T11:46:34.743Z,22.22
2018-06-21T11:49:04.610Z,21.37
2018-06-21T11:51:34.450Z,21.45
2018-06-21T11:54:04.002Z,21.36
2018-06-21T11:56:34.288Z,20.78
2018-06-21T11:59:08.572Z,20.59
2018-06-21T12:01:44.739Z,20.68
2018-06-21T12:04:21.949Z,20.73
2018-06-21T12:06:52.585Z,21.73
2018-06-21T12:09:21.944Z,22.93
2018-06-21T12:11:53.397Z,22.68
2018-06-21T12:14:25.379Z,22.43
2018-06-21T12:16:55.106Z,22.16
2018-06-21T12:19:24.485Z,22.20
2018-06-21T12:21:53.917Z,22.38
2018-06-21T12:24:23.405Z,21.18
2018-06-21T12:26:52.894Z,21.44
2018-06-21T12:29:22.331Z,21.88
2018-06-21T12:31:52.354Z,21.41
2018-06-21T12:34:22.023Z,21.38
2018-06-21T12:36:51.590Z,22.54
2018-06-21T12:39:21.301Z,22.91
2018-06-21T12:41:50.768Z,23.09
2018-06-21T12:44:20.323Z,22.21
2018-06-21T12:46:49.720Z,22.00
2018-06-21T12:49:19.343Z,22.43
2018-06-21T12:51:49.178Z,21.35
2018-06-21T12:54:18.836Z,21.46
2018-06-21T12:56:48.447Z,20.67
2018-06-21T12:59:18.151Z,21.02
2018-06-21T13:01:47.967Z,20.72
2018-06-21T13:04:17.418Z,21.29
2018-06-21T13:06:47.113Z,21.94
2018-06-21T13:11:33.731Z,22.10
2018-06-21T13:14:14.323Z,22.03
2018-06-21T13:16:44.348Z,21.90
2018-06-21T13:19:14.101Z,21.88
2018-06-21T13:21:43.630Z,22.32
2018-06-21T13:24:13.175Z,20.11
2018-06-21T13:26:42.721Z,20.18
2018-06-21T13:29:12.403Z,20.86
2018-06-21T13:31:42.275Z,20.80
2018-06-21T13:34:11.966Z,20.32
2018-06-21T13:36:41.579Z,20.77
2018-06-21T13:39:11.448Z,21.65
2018-06-21T13:41:41.307Z,21.41
2018-06-21T13:44:11.444Z,21.11
2018-06-21T13:46:44.312Z,22.40
2018-06-21T13:49:14.341Z,21.23
2018-06-21T13:51:43.956Z,21.28
2018-06-21T13:54:14.376Z,21.64
2018-06-21T13:56:44.898Z,21.64
2018-06-21T13:59:16.195Z,21.66
2018-06-21T14:01:48.237Z,20.66
2018-06-21T14:04:17.925Z,20.06
2018-06-21T14:06:47.617Z,20.64
2018-06-21T14:09:17.326Z,20.84
2018-06-21T14:11:47.931Z,20.56
2018-06-21T14:14:17.691Z,21.17
2018-06-21T14:16:49.735Z,20.76
2018-06-21T14:19:19.679Z,20.39
2018-06-21T14:21:49.452Z,20.01
2018-06-21T14:24:19.357Z,20.20
2018-06-21T14:26:49.242Z,20.47
2018-06-21T14:29:19.237Z,20.66
2018-06-21T14:31:48.819Z,20.46
2018-06-21T14:34:18.568Z,20.59
2018-06-21T14:36:48.397Z,20.57
2018-06-21T14:39:18.899Z,21.37
2018-06-21T14:41:49.975Z,21.29
2018-06-21T14:44:20.391Z,20.61
2018-06-21T14:46:52.035Z,20.04
2018-06-21T14:49:23.050Z,19.46
2018-06-21T14:51:57.762Z,19.56
2018-06-21T14:54:30.521Z,19.34
2018-06-21T14:57:00.552Z,19.59
2018-06-21T14:59:31.844Z,19.83
2018-06-21T15:02:01.864Z,20.27
2018-06-21T15:04:32.690Z,20.11
2018-06-21T15:07:04.696Z,19.95
2018-06-21T15:09:35.267Z,18.92
2018-06-21T15:12:05.061Z,20.18
2018-06-21T15:14:34.946Z,20.00
2018-06-21T15:17:04.566Z,20.42
2018-06-21T15:19:34.100Z,19.38
2018-06-21T15:22:03.842Z,19.48
2018-06-21T15:24:34.669Z,19.23
2018-06-21T15:27:05.075Z,19.51
2018-06-21T15:29:35.834Z,19.61
2018-06-21T15:32:06.391Z,19.92
2018-06-21T15:34:36.616Z,19.53
2018-06-21T15:37:06.724Z,18.80
2018-06-21T15:39:36.862Z,19.31
2018-06-21T15:42:06.668Z,19.93
2018-06-21T15:44:36.944Z,19.41
2018-06-21T15:47:07.170Z,19.92
2018-06-21T15:49:36.976Z,19.91
2018-06-21T15:52:09.887Z,19.61
2018-06-21T15:54:40.705Z,18.86
2018-06-21T15:57:11.082Z,18.76
2018-06-21T15:59:41.421Z,18.84
2018-06-21T16:02:12.802Z,19.06
2018-06-21T16:04:43.128Z,19.07
2018-06-21T16:07:13.852Z,19.05
2018-06-21T16:09:48.128Z,19.84
2018-06-21T16:12:19.222Z,20.52
2018-06-21T16:14:49.269Z,19.43
2018-06-21T16:17:18.889Z,19.66
2018-06-21T16:19:48.698Z,18.65
2018-06-21T16:22:18.312Z,18.60
2018-06-21T16:24:47.866Z,18.60
2018-06-21T16:27:17.369Z,19.02
2018-06-21T16:29:47.318Z,18.17
2018-06-21T16:32:16.969Z,18.83
2018-06-21T16:34:47.809Z,18.63
2018-06-21T16:37:17.667Z,18.88
2018-06-21T16:39:47.046Z,18.35
2018-06-21T16:42:16.984Z,18.40
2018-06-21T16:44:46.731Z,18.39
2018-06-21T16:47:16.834Z,18.52
2018-06-21T16:49:46.892Z,18.81
2018-06-21T16:52:18.866Z,18.36
2018-06-21T16:54:53.453Z,18.70
2018-06-21T16:57:24.369Z,19.03
2018-06-21T16:59:56.365Z,19.29
2018-06-21T17:02:53.429Z,18.65
2018-06-21T17:05:23.949Z,18.48
2018-06-21T17:07:53.555Z,19.08
2018-06-21T17:10:23.258Z,18.84
2018-06-21T17:12:55.252Z,18.99
2018-06-21T17:15:24.777Z,18.50
2018-06-21T17:17:55.982Z,18.86
2018-06-21T17:20:26.354Z,18.32
2018-06-21T17:22:58.708Z,18.24
2018-06-21T17:25:31.270Z,19.17
2018-06-21T17:28:00.811Z,19.10
2018-06-21T17:30:31.696Z,18.56
2018-06-21T17:33:02.512Z,18.25
2018-06-21T17:35:33.203Z,18.75
2018-06-21T17:38:03.085Z,18.44
2018-06-21T17:40:32.849Z,18.57
2018-06-21T17:43:03.038Z,18.21
2018-06-21T17:45:32.958Z,18.32
2018-06-21T17:48:03.104Z,18.61
2018-06-21T17:50:33.149Z,17.92
2018-06-21T17:53:02.609Z,17.49
2018-06-21T17:55:33.745Z,17.62
2018-06-21T17:58:03.308Z,17.07
2018-06-21T18:00:33.331Z,16.95
2018-06-21T18:03:03.030Z,17.35
2018-06-21T18:05:34.075Z,17.03
2018-06-21T18:08:03.527Z,16.82
2018-06-21T18:10:33.618Z,17.00
2018-06-21T18:13:06.065Z,17.28
2018-06-21T18:15:36.219Z,17.70
2018-06-21T18:18:06.399Z,17.37
2018-06-21T18:20:36.785Z,17.38
2018-06-21T18:23:07.412Z,17.61
2018-06-21T18:25:37.856Z,17.14
2018-06-21T18:28:07.467Z,16.99
2018-06-21T18:30:42.858Z,16.39
2018-06-21T18:33:18.558Z,16.83
2018-06-21T18:35:51.964Z,16.47
2018-06-21T18:38:21.672Z,16.06
2018-06-21T18:40:51.327Z,16.40
2018-06-21T18:43:21.769Z,16.36
2018-06-21T18:45:52.849Z,16.58
2018-06-21T18:48:23.093Z,15.91
2018-06-21T18:50:55.059Z,16.05
2018-06-21T18:53:24.725Z,16.61
2018-06-21T18:55:54.829Z,16.17
2018-06-21T18:58:24.326Z,15.62
2018-06-21T19:00:53.920Z,15.34
2018-06-21T19:03:23.464Z,15.75
2018-06-21T19:05:53.093Z,15.27
2018-06-21T19:08:28.322Z,15.38
2018-06-21T19:11:04.252Z,15.06
2018-06-21T19:13:33.858Z,15.42
2018-06-21T19:16:04.917Z,15.45
2018-06-21T19:18:39.919Z,15.45
2018-06-21T19:21:09.682Z,14.80
2018-06-21T19:23:39.311Z,15.13
2018-06-21T19:26:11.000Z,14.97
2018-06-21T19:28:43.078Z,14.18
2018-06-21T19:31:12.950Z,15.00
2018-06-21T19:33:43.222Z,15.08
2018-06-21T19:36:15.401Z,14.95
2018-06-21T19:38:45.275Z,14.77
2018-06-21T19:41:17.132Z,14.85
2018-06-21T19:43:46.754Z,14.63
2018-06-21T19:46:16.630Z,15.07
2018-06-21T19:48:47.915Z,14.55
2018-06-21T19:51:17.639Z,14.63
2018-06-21T19:53:47.560Z,14.92
2018-06-21T19:56:19.131Z,14.67
2018-06-21T19:58:51.885Z,14.12
2018-06-21T20:01:21.680Z,14.38
2018-06-21T20:03:51.747Z,13.69
2018-06-21T20:06:27.126Z,13.73
2018-06-21T20:09:00.517Z,14.07
2018-06-21T20:11:37.289Z,13.89
2018-06-21T20:14:11.258Z,14.24
2018-06-21T20:16:43.820Z,13.84
2018-06-21T20:19:23.712Z,13.51
2018-06-21T20:21:53.979Z,14.30
2018-06-21T20:24:24.253Z,14.33
2018-06-21T20:26:54.146Z,14.08
2018-06-21T20:29:24.090Z,14.23
2018-06-21T20:31:54.855Z,14.27
2018-06-21T20:34:30.884Z,13.64
2018-06-21T20:37:03.719Z,14.54
2018-06-21T20:39:35.729Z,13.66
2018-06-21T20:42:05.880Z,14.49
2018-06-21T20:44:36.116Z,14.34
2018-06-21T20:47:06.766Z,13.25
2018-06-21T20:49:37.422Z,13.92
2018-06-21T20:52:11.217Z,14.29
2018-06-21T20:54:44.396Z,14.05
2018-06-21T20:57:15.357Z,13.91
2018-06-21T20:59:49.191Z,14.16
2018-06-21T21:02:20.224Z,14.12
2018-06-21T21:05:15.321Z,14.24
2018-06-21T21:07:47.299Z,13.88
2018-06-21T21:10:18.626Z,14.49
2018-06-21T21:12:49.905Z,13.51
2018-06-21T21:15:20.832Z,13.63
2018-06-21T21:17:51.296Z,13.70
2018-06-21T21:20:23.346Z,12.86
2018-06-21T21:23:01.631Z,13.42
2018-06-21T21:25:32.253Z,12.98
2018-06-21T21:28:02.291Z,13.54
2018-06-21T21:30:32.900Z,13.28
2018-06-21T21:33:04.588Z,13.74
2018-06-21T21:35:34.131Z,13.71
2018-06-21T21:38:03.803Z,13.68
2018-06-21T21:40:35.455Z,13.78
2018-06-21T21:43:05.007Z,13.94
2018-06-21T21:45:35.114Z,14.05
2018-06-21T21:48:05.386Z,14.12
2018-06-21T21:50:35.720Z,14.45
2018-06-21T21:53:07.200Z,14.34
2018-06-21T21:55:36.653Z,13.52
2018-06-21T21:58:06.039Z,13.38
2018-06-21T22:00:45.697Z,13.42
2018-06-21T22:03:15.120Z,13.63
2018-06-21T22:05:44.980Z,13.36
2018-06-21T22:08:15.587Z,13.52
2018-06-21T22:10:45.914Z,13.80
2018-06-21T22:13:15.928Z,13.32
2018-06-21T22:15:45.608Z,13.63
2018-06-21T22:18:15.040Z,13.58
2018-06-21T22:20:44.458Z,13.31
2018-06-21T22:23:13.895Z,13.32
2018-06-21T22:25:43.425Z,13.95
2018-06-21T22:28:12.862Z,13.83
2018-06-21T22:30:42.373Z,13.28
2018-06-21T22:33:11.915Z,12.86
2018-06-21T22:35:41.433Z,13.82
2018-06-21T22:38:10.810Z,12.81
2018-06-21T22:40:40.252Z,12.75
2018-06-21T22:43:09.616Z,12.70
2018-06-21T22:45:39.942Z,12.96
2018-06-21T22:48:09.588Z,12.74
2018-06-21T22:50:39.253Z,13.44
2018-06-21T22:53:08.786Z,12.98
2018-06-21T22:55:38.292Z,13.00
2018-06-21T22:58:07.952Z,13.09
2018-06-21T23:00:37.672Z,13.05
2018-06-21T23:03:07.154Z,12.71
2018-06-21T23:05:36.743Z,12.81
2018-06-21T23:08:06.219Z,13.17
2018-06-21T23:10:35.638Z,12.39
2018-06-21T23:13:05.122Z,12.23
2018-06-21T23:15:34.593Z,12.80
2018-06-21T23:18:04.215Z,12.63
2018-06-21T23:20:33.774Z,12.82
2018-06-21T23:23:03.201Z,12.56
2018-06-21T23:25:32.550Z,12.76
2018-06-21T23:28:01.911Z,12.45
2018-06-21T23:30:31.482Z,12.08
2018-06-21T23:33:00.893Z,12.34
2018-06-21T23:35:30.322Z,12.60
2018-06-21T23:37:59.669Z,12.58
2018-06-21T23:40:29.213Z,12.66
2018-06-21T23:42:58.598Z,12.45
2018-06-21T23:45:27.981Z,12.50
2018-06-21T23:47:57.381Z,12.83
2018-06-21T23:50:26.709Z,11.71
2018-06-21T23:52:56.078Z,11.76
2018-06-21T23:55:25.531Z,12.34
2018-06-21T23:57:54.858Z,11.87
